Time;durP1;ratioP1;P1;durP2;ratioP2;P2;SDS_P1;SDS_P2;PMS_P1;PMS_P2;Temp;Humidity;BMP_temperature;BMP_pressure;BME280_temperature;BME280_humidity;BME280_pressure;Samples;Min_cycle;Max_cycle;Signal;HPM_P1;HPM_P2
2022/05/09 00:01:52;;;;;;;5.13;2.80;;;11.10;24.10;;;;;;5054192;28;20557;-61
2022/05/09 00:04:21;;;;;;;10.37;3.30;;;11.00;26.60;;;;;;5054245;28;20203;-60
2022/05/09 00:06:49;;;;;;;9.90;3.37;;;11.00;28.90;;;;;;5054190;28;20197;-59
2022/05/09 00:09:17;;;;;;;4.53;2.70;;;11.00;32.50;;;;;;5054068;28;20228;-60
2022/05/09 00:11:44;;;;;;;6.10;2.90;;;10.90;36.00;;;;;;5054151;28;20550;-60
2022/05/09 00:14:13;;;;;;;5.77;2.80;;;10.90;42.10;;;;;;5053710;28;20241;-60
2022/05/09 00:16:41;;;;;;;5.73;3.17;;;10.80;46.10;;;;;;5053958;28;20205;-60
2022/05/09 00:19:10;;;;;;;7.17;3.53;;;10.80;52.80;;;;;;5054159;28;20196;-60
2022/05/09 00:21:41;;;;;;;5.87;2.80;;;10.80;58.90;;;;;;5053938;28;20214;-59
2022/05/09 00:24:12;;;;;;;6.17;3.17;;;10.70;66.00;;;;;;5053620;28;20674;-60
2022/05/09 00:26:39;;;;;;;7.30;2.80;;;10.70;72.20;;;;;;5053978;28;20208;-60
2022/05/09 00:29:09;;;;;;;6.67;2.97;;;10.70;84.40;;;;;;5053422;28;20223;-59
2022/05/09 00:31:36;;;;;;;6.63;2.70;;;10.60;92.50;;;;;;5054036;28;20208;-60
2022/05/09 00:34:03;;;;;;;6.40;2.87;;;10.60;96.10;;;;;;5053563;28;20661;-60
2022/05/09 00:36:31;;;;;;;8.77;3.77;;;10.60;99.90;;;;;;5053900;28;20211;-59
2022/05/09 00:39:01;;;;;;;8.97;3.20;;;10.60;99.90;;;;;;5053578;28;20513;-60
2022/05/09 00:41:34;;;;;;;7.20;3.30;;;10.50;99.90;;;;;;5053620;28;20294;-60
2022/05/09 00:44:03;;;;;;;6.37;3.13;;;10.60;99.90;;;;;;5053427;28;20185;-60
2022/05/09 00:46:31;;;;;;;5.63;2.90;;;10.50;99.90;;;;;;5053810;28;20196;-59
2022/05/09 00:49:03;;;;;;;7.60;3.07;;;10.50;99.90;;;;;;5053721;28;20223;-60
2022/05/09 00:51:31;;;;;;;5.37;2.73;;;10.40;99.90;;;;;;5053492;28;20245;-59
2022/05/09 00:54:02;;;;;;;7.13;3.03;;;10.40;99.90;;;;;;5053534;28;20218;-59
2022/05/09 00:56:35;;;;;;;7.03;3.07;;;10.40;99.90;;;;;;5053196;28;20187;-59
2022/05/09 00:59:06;;;;;;;5.80;3.30;;;10.30;99.90;;;;;;5053181;28;20238;-59
2022/05/09 01:01:33;;;;;;;5.40;2.90;;;10.30;99.90;;;;;;5052667;28;20184;-59
2022/05/09 01:04:07;;;;;;;9.00;3.30;;;10.30;99.90;;;;;;5052742;28;20536;-59
2022/05/09 01:06:34;;;;;;;8.87;3.50;;;10.20;99.90;;;;;;5053288;28;20196;-59
2022/05/09 01:09:02;;;;;;;4.30;3.60;;;10.20;99.90;;;;;;5052981;28;20239;-59
2022/05/09 01:11:30;;;;;;;6.73;2.90;;;10.20;99.90;;;;;;5052842;28;20204;-59
2022/05/09 01:14:04;;;;;;;4.70;3.00;;;10.20;99.90;;;;;;5052871;28;20353;-59
2022/05/09 01:16:32;;;;;;;5.90;3.20;;;10.10;99.90;;;;;;5053230;28;20603;-59
2022/05/09 01:19:04;;;;;;;8.03;3.63;;;10.10;99.90;;;;;;5053114;28;20203;-59
2022/05/09 01:21:35;;;;;;;6.73;3.53;;;10.10;99.90;;;;;;5052807;28;20215;-59
2022/05/09 01:24:02;;;;;;;6.57;3.20;;;10.10;99.90;;;;;;5053061;28;20193;-59
2022/05/09 01:26:29;;;;;;;8.50;3.47;;;10.10;99.90;;;;;;5052987;28;20215;-59
2022/05/09 01:29:03;;;;;;;7.90;3.60;;;10.00;99.90;;;;;;5052777;28;20211;-59
2022/05/09 01:31:31;;;;;;;7.10;3.87;;;10.00;99.90;;;;;;5052634;28;20694;-59
2022/05/09 01:34:01;;;;;;;6.17;3.77;;;9.90;99.90;;;;;;5052933;28;20203;-59
2022/05/09 01:36:34;;;;;;;7.67;3.90;;;9.90;99.90;;;;;;5052836;28;20180;-59
2022/05/09 01:39:05;;;;;;;7.47;3.47;;;9.90;99.90;;;;;;5052974;28;20184;-60
2022/05/09 01:41:37;;;;;;;6.20;3.33;;;9.80;99.90;;;;;;5052495;28;20189;-59
2022/05/09 01:44:05;;;;;;;8.33;3.90;;;9.80;99.90;;;;;;5052723;28;20186;-60
2022/05/09 01:46:32;;;;;;;10.00;3.80;;;9.80;99.90;;;;;;5052699;28;20227;-59
2022/05/09 01:51:46;;;;;;;6.73;3.87;;;9.80;99.90;;;;;;5052831;28;20211;-60
2022/05/09 01:54:16;;;;;;;7.63;3.53;;;9.70;99.90;;;;;;5052662;28;20214;-60
2022/05/09 01:56:43;;;;;;;9.37;4.00;;;9.70;99.90;;;;;;5052026;28;20672;-60
2022/05/09 01:59:13;;;;;;;10.87;3.70;;;9.70;99.90;;;;;;5052430;28;20200;-59
2022/05/09 02:01:43;;;;;;;5.90;3.27;;;9.70;99.90;;;;;;5052242;28;20569;-59
2022/05/09 02:04:12;;;;;;;9.27;3.70;;;9.70;99.90;;;;;;5052249;28;20668;-59
2022/05/09 02:06:39;;;;;;;5.60;3.80;;;9.60;99.90;;;;;;5052413;28;20235;-59
2022/05/09 02:09:06;;;;;;;8.30;3.77;;;9.60;99.90;;;;;;5052246;28;20228;-59
2022/05/09 02:11:34;;;;;;;8.60;3.80;;;9.60;99.90;;;;;;5052084;28;20301;-59
2022/05/09 02:14:02;;;;;;;6.47;3.70;;;9.60;99.90;;;;;;5055145;28;20305;-59
2022/05/09 02:16:29;;;;;;;7.87;3.80;;;9.50;99.90;;;;;;5059135;28;20210;-62
2022/05/09 02:18:56;;;;;;;7.93;3.87;;;9.50;99.90;;;;;;5059260;28;20210;-62
2022/05/09 02:21:23;;;;;;;9.07;3.70;;;9.50;99.90;;;;;;5059239;28;20302;-62
2022/05/09 02:23:50;;;;;;;8.80;4.00;;;9.50;99.90;;;;;;5059338;28;20206;-62
2022/05/09 02:26:17;;;;;;;7.87;4.00;;;9.50;99.90;;;;;;5059632;28;20214;-62
2022/05/09 02:28:46;;;;;;;8.80;4.37;;;9.40;99.90;;;;;;5058785;28;20556;-62
2022/05/09 02:31:13;;;;;;;7.97;4.33;;;9.40;99.90;;;;;;5059120;28;20221;-62
2022/05/09 02:33:39;;;;;;;8.07;3.97;;;9.40;99.90;;;;;;5059360;28;20203;-62
2022/05/09 02:36:06;;;;;;;8.33;3.83;;;9.30;99.90;;;;;;5058970;28;20198;-62
2022/05/09 02:38:35;;;;;;;10.20;4.23;;;9.30;99.90;;;;;;5058751;28;20196;-63
2022/05/09 02:41:02;;;;;;;5.63;3.63;;;9.30;99.90;;;;;;5059074;28;20204;-63
2022/05/09 02:43:29;;;;;;;9.23;4.40;;;9.30;99.90;;;;;;5058866;28;20606;-63
2022/05/09 02:46:03;;;;;;;6.57;3.77;;;9.30;99.90;;;;;;5059449;28;20209;-65
2022/05/09 02:48:31;;;;;;;10.87;4.43;;;9.30;99.90;;;;;;5058940;28;20198;-62
2022/05/09 02:51:00;;;;;;;9.47;4.10;;;9.20;99.90;;;;;;5059259;28;20318;-59
2022/05/09 02:53:27;;;;;;;9.23;4.23;;;9.20;99.90;;;;;;5059547;28;20214;-60
2022/05/09 02:55:54;;;;;;;9.03;4.30;;;9.20;99.90;;;;;;5059357;28;20196;-60
2022/05/09 02:58:22;;;;;;;6.47;3.97;;;9.10;99.90;;;;;;5058346;28;20687;-60
2022/05/09 03:00:49;;;;;;;6.87;4.70;;;9.20;99.90;;;;;;5058757;28;20696;-60
2022/05/09 03:06:01;;;;;;;10.70;4.50;;;9.10;99.90;;;;;;5058815;28;20191;-59
2022/05/09 03:08:29;;;;;;;8.20;4.60;;;9.10;99.90;;;;;;5058168;28;20195;-60
2022/05/09 03:10:56;;;;;;;6.77;4.10;;;9.10;99.90;;;;;;5058246;28;20214;-60
2022/05/09 03:13:24;;;;;;;9.10;4.40;;;9.10;99.90;;;;;;5058376;28;20238;-59
2022/05/09 03:15:51;;;;;;;70.23;9.53;;;9.10;99.90;;;;;;5058300;28;20729;-59
2022/05/09 03:18:23;;;;;;;18.87;5.50;;;9.00;99.90;;;;;;5058561;28;20249;-60
2022/05/09 03:20:51;;;;;;;10.73;4.27;;;9.00;99.90;;;;;;5058234;28;20635;-59
2022/05/09 03:23:18;;;;;;;10.40;4.67;;;8.90;99.90;;;;;;5058695;28;20340;-59
2022/05/09 03:25:46;;;;;;;10.83;4.90;;;9.00;99.90;;;;;;5055602;28;20242;-59
2022/05/09 03:28:14;;;;;;;8.67;4.50;;;8.90;99.90;;;;;;5055301;28;20212;-59
2022/05/09 03:30:42;;;;;;;11.40;4.90;;;8.90;99.90;;;;;;5054897;28;20698;-60
2022/05/09 03:33:09;;;;;;;10.43;5.00;;;8.90;99.90;;;;;;5054921;28;20276;-59
2022/05/09 03:35:37;;;;;;;8.57;4.60;;;8.80;99.90;;;;;;5055159;28;20206;-59
2022/05/09 03:38:05;;;;;;;23.60;5.67;;;8.80;99.90;;;;;;5054978;28;20254;-60
2022/05/09 03:40:34;;;;;;;26.43;6.50;;;8.80;99.90;;;;;;5054815;28;20202;-60
2022/05/09 03:43:01;;;;;;;12.47;5.30;;;8.80;99.90;;;;;;5054980;28;20220;-60
2022/05/09 03:45:28;;;;;;;7.43;4.57;;;8.70;99.90;;;;;;5054719;28;20207;-60
2022/05/09 03:47:56;;;;;;;7.80;4.90;;;8.70;99.90;;;;;;5054888;28;20294;-60
2022/05/09 03:50:23;;;;;;;8.23;4.63;;;8.80;99.90;;;;;;5054754;28;20219;-60
2022/05/09 03:52:52;;;;;;;8.03;4.57;;;8.80;99.90;;;;;;5054948;28;20203;-59
2022/05/09 03:55:19;;;;;;;7.73;4.23;;;8.70;99.90;;;;;;5054802;28;20199;-59
2022/05/09 03:57:48;;;;;;;6.57;4.30;;;8.70;99.90;;;;;;5054725;28;20203;-61
2022/05/09 04:00:18;;;;;;;9.53;5.03;;;8.70;99.90;;;;;;5054630;28;20207;-60
2022/05/09 04:02:45;;;;;;;18.97;5.27;;;8.60;99.90;;;;;;5054747;28;20242;-60
2022/05/09 04:05:15;;;;;;;13.27;5.10;;;8.60;99.90;;;;;;5055061;28;20194;-59
2022/05/09 04:07:44;;;;;;;8.27;4.87;;;8.60;99.90;;;;;;5056508;28;20194;-59
2022/05/09 04:10:12;;;;;;;9.50;5.33;;;8.70;99.90;;;;;;5054197;28;20310;-59
2022/05/09 04:12:40;;;;;;;13.87;5.57;;;8.60;99.90;;;;;;5054233;28;20196;-59
2022/05/09 04:17:54;;;;;;;8.53;4.53;;;8.70;99.90;;;;;;5054492;28;20183;-59
2022/05/09 04:20:21;;;;;;;10.67;5.67;;;8.70;99.90;;;;;;5054323;28;20281;-59
2022/05/09 04:22:48;;;;;;;8.03;4.63;;;8.80;99.90;;;;;;5054118;28;20206;-59
2022/05/09 04:25:16;;;;;;;7.30;4.90;;;8.70;99.90;;;;;;5054302;28;20203;-60
2022/05/09 04:27:43;;;;;;;7.47;4.90;;;8.80;99.90;;;;;;5054312;28;20205;-60
2022/05/09 04:30:11;;;;;;;10.17;5.07;;;8.80;99.90;;;;;;5053682;28;20228;-60
2022/05/09 04:32:40;;;;;;;8.47;4.73;;;8.90;99.90;;;;;;5053955;28;20199;-60
2022/05/09 04:35:11;;;;;;;12.17;5.30;;;8.90;99.90;;;;;;5054085;28;20226;-60
2022/05/09 04:37:40;;;;;;;11.07;5.10;;;8.90;99.90;;;;;;5053599;28;20184;-60
2022/05/09 04:40:08;;;;;;;13.57;5.63;;;8.90;99.90;;;;;;5054045;28;20238;-60
2022/05/09 04:42:37;;;;;;;10.93;4.57;;;9.00;99.90;;;;;;5053971;28;20555;-60
2022/05/09 04:45:04;;;;;;;23.07;6.10;;;9.00;99.90;;;;;;5053909;28;20199;-60
2022/05/09 04:47:31;;;;;;;20.63;5.97;;;9.10;99.90;;;;;;5053844;28;20534;-59
2022/05/09 04:49:58;;;;;;;23.10;6.17;;;9.20;99.90;;;;;;5053720;28;20212;-60
2022/05/09 04:52:26;;;;;;;8.53;4.87;;;9.30;99.90;;;;;;5053703;28;20210;-60
2022/05/09 04:54:53;;;;;;;9.97;4.87;;;9.30;99.90;;;;;;5053501;28;20202;-60
2022/05/09 04:57:20;;;;;;;23.07;6.13;;;9.40;99.90;;;;;;5053491;28;20215;-60
2022/05/09 04:59:49;;;;;;;16.70;5.33;;;9.50;99.90;;;;;;5053202;28;20687;-59
2022/05/09 05:02:16;;;;;;;16.47;5.67;;;9.80;99.90;;;;;;5053574;28;20298;-59
2022/05/09 05:04:43;;;;;;;18.43;5.37;;;10.00;99.90;;;;;;5053425;28;20203;-59
2022/05/09 05:07:10;;;;;;;15.97;5.17;;;10.20;99.90;;;;;;5053047;28;20336;-59
2022/05/09 05:09:37;;;;;;;8.30;4.80;;;10.50;99.90;;;;;;5053025;28;20215;-60
2022/05/09 05:12:05;;;;;;;11.00;5.07;;;10.60;99.90;;;;;;5053008;28;20213;-60
2022/05/09 05:14:33;;;;;;;9.03;4.53;;;10.60;99.90;;;;;;5052570;28;20235;-60
2022/05/09 05:17:01;;;;;;;7.80;4.30;;;10.70;99.90;;;;;;5052972;28;20255;-60
2022/05/09 05:19:28;;;;;;;9.07;4.73;;;10.70;99.90;;;;;;5052716;28;20212;-60
2022/05/09 05:21:57;;;;;;;11.80;5.60;;;10.80;99.90;;;;;;5052861;28;20521;-60
2022/05/09 05:24:24;;;;;;;9.33;5.17;;;10.90;99.90;;;;;;5052440;28;20247;-60
2022/05/09 05:26:52;;;;;;;8.50;4.77;;;11.30;99.90;;;;;;5052790;28;20209;-60
2022/05/09 05:29:19;;;;;;;19.03;5.33;;;11.80;99.90;;;;;;5052580;28;20195;-60
2022/05/09 05:31:46;;;;;;;8.53;4.50;;;12.40;99.90;;;;;;5052629;28;20594;-60
2022/05/09 05:34:14;;;;;;;10.37;5.17;;;12.90;99.90;;;;;;5052683;28;20668;-60
2022/05/09 05:36:41;;;;;;;12.00;5.17;;;13.30;99.90;;;;;;5052257;28;20666;-61
2022/05/09 05:39:09;;;;;;;8.87;5.33;;;13.50;99.90;;;;;;5052650;28;20207;-61
2022/05/09 05:41:36;;;;;;;9.87;5.17;;;13.60;99.90;;;;;;5052524;28;20204;-61
2022/05/09 05:44:06;;;;;;;12.93;5.73;;;13.50;99.90;;;;;;5052594;28;20290;-60
2022/05/09 05:46:33;;;;;;;8.80;5.70;;;13.00;99.90;;;;;;5052665;28;20199;-60
2022/05/09 05:49:00;;;;;;;8.83;5.30;;;12.80;99.90;;;;;;5051902;28;20298;-61
2022/05/09 05:51:28;;;;;;;8.77;5.97;;;13.00;99.90;;;;;;5052138;28;20723;-61
2022/05/09 05:53:58;;;;;;;7.93;5.37;;;13.00;99.90;;;;;;5052162;28;20207;-61
2022/05/09 05:56:25;;;;;;;9.33;5.07;;;13.80;99.90;;;;;;5052296;28;20227;-61
2022/05/09 05:58:52;;;;;;;6.90;4.77;;;14.70;99.90;;;;;;5052495;28;20211;-61
2022/05/09 06:01:19;;;;;;;5.70;4.03;;;15.10;84.30;;;;;;5052299;28;20207;-61
2022/05/09 06:03:46;;;;;;;10.00;5.20;;;15.10;63.90;;;;;;5052274;28;20210;-61
2022/05/09 06:06:14;;;;;;;10.33;4.90;;;15.70;36.70;;;;;;5052088;28;20199;-61
2022/05/09 06:08:43;;;;;;;6.27;4.60;;;16.00;18.90;;;;;;5051553;28;20294;-61
2022/05/09 06:11:12;;;;;;;11.25;5.15;;;16.70;9.50;;;;;;5052140;28;20269;-62
2022/05/09 06:13:40;;;;;;;7.57;5.00;;;17.00;1.00;;;;;;5051834;28;20260;-62
2022/05/09 06:16:07;;;;;;;7.25;4.75;;;16.50;1.00;;;;;;5051786;28;20195;-61
2022/05/09 06:18:34;;;;;;;8.27;4.70;;;16.60;1.00;;;;;;5052179;28;20297;-61
2022/05/09 06:21:01;;;;;;;9.00;4.90;;;16.80;1.00;;;;;;5052123;28;20203;-62
2022/05/09 06:23:28;;;;;;;8.55;5.30;;;16.90;1.00;;;;;;5052016;28;20221;-62
2022/05/09 06:25:56;;;;;;;9.25;4.88;;;17.10;1.00;;;;;;5052139;28;20303;-62
2022/05/09 06:28:24;;;;;;;6.10;4.63;;;17.40;1.00;;;;;;5051925;28;20199;-62
2022/05/09 06:30:51;;;;;;;11.77;5.40;;;17.50;1.00;;;;;;5051692;28;20695;-62
2022/05/09 06:33:23;;;;;;;8.70;5.20;;;17.20;1.00;;;;;;5052028;28;20221;-61
2022/05/09 06:35:52;;;;;;;11.85;5.45;;;16.90;1.00;;;;;;5052016;28;20195;-62
2022/05/09 06:38:19;;;;;;;9.05;5.35;;;17.20;1.00;;;;;;5051544;28;20203;-62
2022/05/09 06:40:46;;;;;;;8.77;5.05;;;17.50;1.00;;;;;;5052143;28;20196;-62
2022/05/09 06:43:15;;;;;;;7.28;4.97;;;18.50;1.00;;;;;;5051986;28;20222;-62
2022/05/09 06:45:42;;;;;;;13.85;5.57;;;18.20;1.00;;;;;;5051956;28;20258;-62
2022/05/09 06:48:10;;;;;;;8.20;5.07;;;17.90;1.00;;;;;;5051925;28;20676;-62
2022/05/09 06:50:38;;;;;;;8.93;5.15;;;18.10;1.00;;;;;;5051712;28;20211;-62
2022/05/09 06:53:06;;;;;;;9.40;5.70;;;18.00;1.00;;;;;;5052073;28;20202;-62
2022/05/09 06:55:33;;;;;;;12.50;5.43;;;19.10;1.00;;;;;;5051594;28;20196;-62
2022/05/09 06:58:00;;;;;;;7.25;5.15;;;19.20;1.00;;;;;;5051765;28;20199;-62
2022/05/09 07:00:28;;;;;;;8.98;5.00;;;19.10;1.00;;;;;;5052354;28;20208;-63
2022/05/09 07:02:55;;;;;;;7.90;5.60;;;19.20;1.00;;;;;;5055562;28;20289;-62
2022/05/09 07:05:23;;;;;;;8.73;5.35;;;18.40;1.00;;;;;;5055591;28;20202;-62
2022/05/09 07:07:50;;;;;;;8.35;5.30;;;18.60;1.00;;;;;;5055304;28;20213;-62
2022/05/09 07:10:18;;;;;;;7.35;5.18;;;18.90;1.00;;;;;;5055532;28;20188;-62
2022/05/09 07:12:47;;;;;;;8.10;5.03;;;19.00;1.00;;;;;;5055152;28;20195;-63
2022/05/09 07:15:16;;;;;;;8.55;5.22;;;18.90;1.00;;;;;;5055357;28;20590;-62
2022/05/09 07:17:45;;;;;;;7.47;5.00;;;19.10;1.00;;;;;;5054981;28;20199;-62
2022/05/09 07:20:12;;;;;;;10.02;5.35;;;19.90;1.00;;;;;;5055294;28;20199;-63
2022/05/09 07:22:39;;;;;;;6.90;4.70;;;19.70;1.00;;;;;;5055453;28;20208;-62
2022/05/09 07:25:08;;;;;;;8.35;5.55;;;19.60;1.00;;;;;;5055147;28;20613;-62
2022/05/09 07:27:35;;;;;;;7.70;4.53;;;19.60;1.00;;;;;;5054998;28;20295;-62
2022/05/09 07:30:02;;;;;;;6.88;5.15;;;20.00;1.00;;;;;;5054888;28;20196;-62
2022/05/09 07:32:29;;;;;;;11.80;5.07;;;20.60;1.00;;;;;;5054948;28;20219;-62
2022/05/09 07:34:57;;;;;;;8.25;5.50;;;20.80;1.00;;;;;;5055127;28;20559;-63
2022/05/09 07:37:24;;;;;;;11.27;5.30;;;21.30;1.00;;;;;;5054859;28;20577;-64
2022/05/09 07:39:51;;;;;;;10.73;5.63;;;21.20;1.00;;;;;;5054874;28;20217;-64
2022/05/09 07:42:18;;;;;;;8.32;5.00;;;21.30;1.00;;;;;;5054803;28;20191;-64
2022/05/09 07:44:45;;;;;;;9.05;5.45;;;22.00;1.00;;;;;;5054877;28;20196;-64
2022/05/09 07:47:11;;;;;;;9.25;5.35;;;21.70;1.00;;;;;;5055063;28;20211;-65
2022/05/09 07:49:38;;;;;;;11.80;5.43;;;22.00;1.00;;;;;;5054630;28;20278;-64
2022/05/09 07:52:09;;;;;;;11.45;5.82;;;21.20;1.00;;;;;;5054566;28;20885;-65
2022/05/09 07:54:36;;;;;;;14.73;5.97;;;20.70;1.00;;;;;;5054578;28;20540;-64
2022/05/09 07:57:03;;;;;;;10.52;6.03;;;20.30;1.00;;;;;;5054644;28;20619;-64
2022/05/09 07:59:30;;;;;;;10.35;5.82;;;21.10;1.00;;;;;;5054379;28;20710;-64
2022/05/09 08:01:57;;;;;;;8.98;5.88;;;21.70;1.00;;;;;;5054140;28;20230;-64
2022/05/09 08:04:24;;;;;;;12.27;6.13;;;21.70;1.00;;;;;;5054401;28;20542;-64
2022/05/09 08:06:51;;;;;;;14.13;6.45;;;21.80;1.00;;;;;;5054203;28;20200;-64
2022/05/09 08:09:19;;;;;;;8.75;6.20;;;22.30;1.00;;;;;;5054067;28;20195;-65
2022/05/09 08:11:47;;;;;;;12.57;6.50;;;22.90;1.00;;;;;;5053699;28;20557;-65
2022/05/09 08:14:15;;;;;;;12.25;5.97;;;23.10;1.00;;;;;;5053901;28;20232;-65
2022/05/09 08:16:42;;;;;;;8.63;5.72;;;23.10;1.00;;;;;;5054148;28;20204;-65
2022/05/09 08:19:11;;;;;;;11.98;6.30;;;23.20;1.00;;;;;;5054210;28;20191;-65
2022/05/09 08:21:38;;;;;;;11.43;6.70;;;22.70;1.00;;;;;;5054227;28;20212;-66
2022/05/09 08:24:08;;;;;;;10.88;6.00;;;23.10;1.00;;;;;;5054081;28;20196;-66
2022/05/09 08:26:36;;;;;;;8.80;7.05;;;23.10;1.00;;;;;;5054909;28;20199;-66
2022/05/09 08:29:04;;;;;;;13.30;6.25;;;23.20;1.00;;;;;;5054754;28;20726;-65
2022/05/09 08:31:32;;;;;;;10.88;6.60;;;23.30;1.00;;;;;;5054150;28;20219;-66
2022/05/09 08:33:59;;;;;;;15.30;7.32;;;23.60;1.00;;;;;;5054451;28;20222;-65
2022/05/09 08:39:11;;;;;;;12.15;7.30;;;24.20;1.00;;;;;;5054135;28;20183;-65
2022/05/09 08:41:55;;;;;;;10.85;6.88;;;23.80;1.00;;;;;;5054231;28;20227;-65
2022/05/09 08:44:44;;;;;;;15.18;7.30;;;24.40;1.00;;;;;;5053833;28;20194;-66
2022/05/09 08:47:37;;;;;;;12.68;6.97;;;24.80;1.00;;;;;;5054478;28;20195;-66
2022/05/09 08:50:17;;;;;;;10.93;6.18;;;24.70;1.00;;;;;;5053833;28;20286;-64
2022/05/09 08:52:49;;;;;;;9.90;6.25;;;24.50;1.00;;;;;;5053416;28;20580;-65
2022/05/09 08:55:20;;;;;;;13.10;6.80;;;24.80;1.00;;;;;;5053498;28;20180;-65
2022/05/09 08:57:53;;;;;;;10.57;6.75;;;24.40;1.00;;;;;;5053841;28;20226;-64
2022/05/09 09:00:23;;;;;;;10.32;6.40;;;24.40;1.00;;;;;;5053774;28;20188;-65
2022/05/09 09:03:00;;;;;;;9.93;6.20;;;25.00;1.00;;;;;;5054528;28;20181;-65
2022/05/09 09:05:32;;;;;;;11.80;6.95;;;24.40;1.00;;;;;;5054401;28;20241;-64
2022/05/09 09:08:10;;;;;;;10.98;6.85;;;24.70;1.00;;;;;;5056172;28;20637;-64
2022/05/09 09:10:45;;;;;;;13.20;6.97;;;23.80;1.00;;;;;;5054796;28;20183;-64
2022/05/09 09:13:38;;;;;;;13.75;6.28;;;24.20;1.00;;;;;;5053062;28;20310;-65
2022/05/09 09:16:19;;;;;;;9.13;5.53;;;25.00;1.00;;;;;;5053201;28;20187;-64
2022/05/09 09:19:01;;;;;;;9.30;5.80;;;25.10;1.00;;;;;;5054142;28;20382;-65
2022/05/09 09:21:41;;;;;;;12.70;6.05;;;25.90;1.00;;;;;;5054366;28;20592;-65
2022/05/09 09:24:22;;;;;;;10.45;5.70;;;26.70;1.00;;;;;;5052317;28;20192;-65
2022/05/09 09:27:10;;;;;;;8.48;5.65;;;26.40;1.00;;;;;;5054189;28;20282;-65
2022/05/09 09:29:43;;;;;;;11.07;6.50;;;26.00;1.00;;;;;;5053550;28;20215;-64
2022/05/09 09:32:12;;;;;;;8.75;4.05;;;26.20;1.00;;;;;;5051450;28;20560;-65
2022/05/09 09:34:46;;;;;;;6.90;4.00;;;25.60;1.00;;;;;;5052388;28;20594;-64
2022/05/09 09:37:20;;;;;;;4.85;4.18;;;25.90;1.00;;;;;;5052223;28;20182;-64
2022/05/09 09:39:47;;;;;;;8.82;5.28;;;26.20;1.00;;;;;;5051873;28;20279;-63
2022/05/09 09:42:14;;;;;;;7.15;4.60;;;25.90;1.00;;;;;;5051950;28;20180;-62
2022/05/09 09:44:46;;;;;;;7.63;4.22;;;26.00;1.00;;;;;;5052018;28;20183;-61
2022/05/09 09:47:23;;;;;;;7.32;4.28;;;26.50;1.00;;;;;;5051673;28;20355;-61
2022/05/09 09:50:11;;;;;;;9.32;4.95;;;25.00;1.00;;;;;;5051896;28;20183;-62
2022/05/09 09:52:43;;;;;;;6.85;4.88;;;25.40;1.00;;;;;;5051781;28;20212;-64
2022/05/09 09:55:23;;;;;;;10.13;5.75;;;25.50;1.00;;;;;;5052949;28;20258;-64
2022/05/09 09:57:50;;;;;;;6.88;4.78;;;25.10;1.00;;;;;;5052797;28;20684;-65
2022/05/09 10:00:21;;;;;;;6.25;4.00;;;25.60;1.00;;;;;;5051600;28;20321;-64
2022/05/09 10:02:49;;;;;;;7.57;4.28;;;26.10;1.00;;;;;;5052171;28;20176;-64
2022/05/09 10:05:18;;;;;;;8.57;4.45;;;25.90;1.00;;;;;;5051703;28;20203;-63
2022/05/09 10:07:47;;;;;;;5.95;3.92;;;25.40;1.00;;;;;;5052676;28;20235;-66
2022/05/09 10:10:16;;;;;;;6.22;4.88;;;26.20;1.00;;;;;;5052268;28;20663;-65
2022/05/09 10:12:48;;;;;;;9.65;4.13;;;27.00;1.00;;;;;;5051873;28;20556;-64
2022/05/09 10:15:39;;;;;;;11.55;5.28;;;27.00;1.00;;;;;;5051966;28;20233;-64
2022/05/09 10:18:18;;;;;;;7.65;5.22;;;26.80;1.00;;;;;;5047356;28;20223;-64
2022/05/09 10:20:48;;;;;;;7.93;5.35;;;26.20;1.00;;;;;;5052213;28;20572;-65
2022/05/09 10:26:06;;;;;;;10.50;5.32;;;26.80;1.00;;;;;;5049585;28;20286;-64
2022/05/09 10:28:38;;;;;;;7.43;4.70;;;27.50;1.00;;;;;;5051306;28;20207;-64
2022/05/09 10:31:20;;;;;;;7.05;5.05;;;28.00;1.00;;;;;;5051669;28;20187;-64
2022/05/09 10:33:56;;;;;;;7.88;4.93;;;27.50;1.00;;;;;;5051495;28;20637;-65
2022/05/09 10:36:28;;;;;;;7.47;5.25;;;27.30;1.00;;;;;;5054428;28;20183;-65
2022/05/09 10:38:59;;;;;;;11.52;6.30;;;27.60;1.00;;;;;;5055380;28;20202;-65
2022/05/09 10:41:32;;;;;;;6.93;5.35;;;27.90;1.00;;;;;;5055580;28;20609;-65
2022/05/09 10:44:05;;;;;;;10.75;5.55;;;28.10;1.00;;;;;;5055314;28;20188;-65
2022/05/09 10:46:40;;;;;;;9.48;5.55;;;28.30;1.00;;;;;;5056033;28;20245;-65
2022/05/09 10:49:13;;;;;;;9.38;5.32;;;27.90;1.00;;;;;;5055584;28;20183;-65
2022/05/09 10:51:50;;;;;;;7.80;5.15;;;28.20;1.00;;;;;;5055981;28;20199;-65
2022/05/09 10:54:25;;;;;;;8.55;5.38;;;28.50;1.00;;;;;;5054811;28;20207;-66
2022/05/09 10:56:58;;;;;;;8.73;5.30;;;27.70;1.00;;;;;;5055012;28;20206;-66
2022/05/09 10:59:28;;;;;;;10.70;5.40;;;27.10;1.00;;;;;;5055492;28;20242;-65
2022/05/09 11:02:04;;;;;;;9.82;6.18;;;27.00;1.00;;;;;;5055524;28;20548;-65
2022/05/09 11:04:35;;;;;;;11.43;5.93;;;26.60;1.00;;;;;;5056686;28;20192;-64
2022/05/09 11:07:10;;;;;;;7.78;4.60;;;26.60;1.00;;;;;;5056698;28;20176;-65
2022/05/09 11:09:47;;;;;;;7.97;5.72;;;27.00;1.00;;;;;;5056993;28;20290;-63
2022/05/09 11:12:26;;;;;;;8.98;5.80;;;27.30;1.00;;;;;;5055962;28;20556;-62
2022/05/09 11:15:06;;;;;;;11.50;5.55;;;26.50;1.00;;;;;;5054863;28;20266;-62
2022/05/09 11:17:50;;;;;;;8.32;5.35;;;26.30;1.00;;;;;;5055126;28;20522;-62
2022/05/09 11:20:27;;;;;;;9.10;5.63;;;26.50;1.00;;;;;;5055209;28;20199;-64
2022/05/09 11:23:01;;;;;;;8.00;5.55;;;26.10;1.00;;;;;;5055397;28;20180;-65
2022/05/09 11:25:48;;;;;;;6.80;6.05;;;26.20;1.00;;;;;;5055383;28;20223;-65
2022/05/09 11:28:27;;;;;;;6.63;4.75;;;26.40;1.00;;;;;;5055398;28;20233;-63
2022/05/09 11:31:10;;;;;;;5.10;4.60;;;26.70;1.00;;;;;;5055051;28;20214;-64
2022/05/09 11:33:53;;;;;;;6.18;4.97;;;26.70;1.00;;;;;;5055834;28;20294;-63
2022/05/09 11:36:46;;;;;;;6.60;5.20;;;26.80;1.00;;;;;;5055189;28;20590;-63
2022/05/09 11:39:19;;;;;;;5.70;4.97;;;26.90;1.00;;;;;;5053850;28;20626;-64
2022/05/09 11:41:55;;;;;;;5.93;5.07;;;27.00;1.00;;;;;;5054784;28;20179;-62
2022/05/09 11:44:24;;;;;;;8.27;5.05;;;26.70;1.00;;;;;;5054730;28;20512;-62
2022/05/09 11:47:09;;;;;;;6.55;5.95;;;27.20;1.00;;;;;;5053867;28;20191;-62
2022/05/09 11:50:01;;;;;;;7.70;5.50;;;26.80;1.00;;;;;;5054791;28;20608;-62
2022/05/09 11:52:31;;;;;;;7.00;5.68;;;27.00;1.00;;;;;;5054468;28;20211;-61
2022/05/09 11:55:06;;;;;;;6.80;5.85;;;26.50;1.00;;;;;;5054531;28;20202;-61
2022/05/09 11:57:35;;;;;;;6.78;5.53;;;26.60;1.00;;;;;;5054481;28;20184;-61
2022/05/09 12:00:05;;;;;;;6.10;5.43;;;27.10;1.00;;;;;;5054528;28;20207;-63
2022/05/09 12:02:50;;;;;;;6.75;5.07;;;27.10;1.00;;;;;;5053870;28;20226;-64
2022/05/09 12:05:54;;;;;;;8.52;5.45;;;26.70;1.00;;;;;;5054267;28;20262;-63
2022/05/09 12:08:22;;;;;;;8.60;6.40;;;27.00;1.00;;;;;;5054566;28;20263;-63
2022/05/09 12:10:51;;;;;;;7.13;5.78;;;27.30;1.00;;;;;;5054624;28;20230;-64
2022/05/09 12:13:48;;;;;;;6.03;5.43;;;27.70;1.00;;;;;;5054060;28;20220;-63
2022/05/09 12:16:51;;;;;;;6.30;5.53;;;27.60;1.00;;;;;;5054716;28;20198;-63
2022/05/09 12:19:31;;;;;;;6.97;6.28;;;28.40;1.00;;;;;;5054629;28;20179;-64
2022/05/09 12:22:44;;;;;;;10.73;6.53;;;28.40;1.00;;;;;;5054183;28;20267;-64
2022/05/09 12:25:38;;;;;;;12.20;9.50;;;28.00;1.00;;;;;;5054239;28;20530;-63
2022/05/09 12:28:21;;;;;;;9.70;6.32;;;27.00;1.00;;;;;;5053981;28;20627;-63
2022/05/09 12:30:52;;;;;;;7.90;7.13;;;26.50;1.00;;;;;;5054014;28;20184;-63
2022/05/09 12:33:26;;;;;;;7.72;6.20;;;26.10;1.00;;;;;;5054459;28;20223;-63
2022/05/09 12:35:56;;;;;;;8.10;6.68;;;27.10;1.00;;;;;;5053738;28;20266;-63
2022/05/09 12:38:26;;;;;;;8.13;6.68;;;26.90;1.00;;;;;;5053481;28;20210;-63
2022/05/09 12:41:02;;;;;;;8.18;5.82;;;27.10;1.00;;;;;;5054069;28;20203;-63
2022/05/09 12:43:34;;;;;;;8.65;7.47;;;26.50;1.00;;;;;;5053467;28;20199;-63
2022/05/09 12:46:03;;;;;;;7.72;6.65;;;27.00;1.00;;;;;;5053817;28;20187;-64
2022/05/09 12:48:31;;;;;;;8.45;6.65;;;27.00;1.00;;;;;;5053668;28;20208;-63
2022/05/09 12:51:07;;;;;;;7.43;6.53;;;27.20;1.00;;;;;;5053850;28;20325;-64
2022/05/09 12:53:36;;;;;;;9.63;6.13;;;27.00;1.00;;;;;;5053562;28;20208;-63
2022/05/09 12:56:11;;;;;;;7.95;6.43;;;27.10;1.00;;;;;;5053990;28;20294;-63
2022/05/09 12:58:41;;;;;;;9.82;6.38;;;27.20;1.00;;;;;;5053395;28;20217;-63
2022/05/09 13:01:12;;;;;;;8.07;6.15;;;27.50;1.00;;;;;;5053180;28;20644;-63
2022/05/09 13:03:44;;;;;;;12.00;7.20;;;27.20;1.00;;;;;;5053377;28;20198;-63
2022/05/09 13:06:13;;;;;;;7.00;6.05;;;27.20;1.00;;;;;;5053270;28;20249;-62
2022/05/09 13:08:40;;;;;;;7.65;6.70;;;27.10;1.00;;;;;;5053210;28;20215;-65
2022/05/09 13:11:14;;;;;;;8.45;6.07;;;27.10;1.00;;;;;;5053194;28;20203;-64
2022/05/09 13:13:47;;;;;;;5.78;5.03;;;26.60;1.00;;;;;;5053049;28;20240;-63
2022/05/09 13:16:22;;;;;;;6.85;5.75;;;26.90;1.00;;;;;;5053136;28;20268;-63
2022/05/09 13:18:51;;;;;;;11.07;5.00;;;27.10;1.00;;;;;;5053089;28;20233;-63
2022/05/09 13:21:26;;;;;;;6.40;5.35;;;26.80;1.00;;;;;;5052969;28;20297;-63
2022/05/09 13:23:53;;;;;;;6.82;6.15;;;26.90;1.00;;;;;;5052961;28;20644;-63
2022/05/09 13:26:24;;;;;;;6.75;5.97;;;26.30;1.00;;;;;;5052666;28;20671;-63